Time;durP1;ratioP1;P1;durP2;ratioP2;P2;SDS_P1;SDS_P2;PMS_P1;PMS_P2;Temp;Humidity;BMP_temperature;BMP_pressure;BME280_temperature;BME280_humidity;BME280_pressure;Samples;Min_cycle;Max_cycle;Signal;HPM_P1;HPM_P2
2023/07/28 00:01:56;;;;;;;21.88;16.95;;;18.00;99.90;;;;;;5017546;28;20448;-72
2023/07/28 00:04:21;;;;;;;19.95;16.92;;;18.00;99.90;;;;;;5031706;28;20030;-71
2023/07/28 00:06:47;;;;;;;21.38;17.23;;;17.90;99.90;;;;;;5026564;28;20123;-71
2023/07/28 00:09:12;;;;;;;20.35;17.05;;;17.90;99.90;;;;;;5030096;28;20095;-71
2023/07/28 00:11:38;;;;;;;20.45;17.60;;;18.00;99.90;;;;;;5031755;28;20030;-71
2023/07/28 00:14:04;;;;;;;19.30;15.85;;;18.00;99.90;;;;;;5028648;28;20104;-71
2023/07/28 00:16:29;;;;;;;21.40;16.88;;;18.00;99.90;;;;;;5028316;28;20460;-71
2023/07/28 00:18:55;;;;;;;21.45;17.42;;;18.00;99.90;;;;;;5040430;28;20017;-71
2023/07/28 00:21:20;;;;;;;21.13;17.60;;;17.90;99.90;;;;;;5030532;28;20108;-71
2023/07/28 00:23:46;;;;;;;19.67;16.60;;;17.90;99.90;;;;;;5026253;28;20048;-71
2023/07/28 00:26:11;;;;;;;21.55;17.73;;;18.00;99.90;;;;;;5031209;28;20029;-71
2023/07/28 00:28:37;;;;;;;22.85;17.10;;;17.90;99.90;;;;;;5029579;28;20042;-71
2023/07/28 00:31:03;;;;;;;20.92;16.30;;;18.00;99.90;;;;;;5027784;28;20041;-71
2023/07/28 00:33:29;;;;;;;21.90;16.77;;;17.90;99.90;;;;;;5028906;28;20035;-71
2023/07/28 00:35:54;;;;;;;19.38;15.90;;;17.90;99.90;;;;;;5028073;28;20526;-71
2023/07/28 00:38:20;;;;;;;17.63;15.73;;;18.00;99.90;;;;;;5030516;28;20503;-71
2023/07/28 00:40:46;;;;;;;18.63;15.95;;;18.00;99.90;;;;;;5030328;28;20108;-71
2023/07/28 00:43:11;;;;;;;22.58;17.02;;;18.00;99.90;;;;;;5031224;28;20037;-72
2023/07/28 00:45:37;;;;;;;19.83;15.93;;;18.00;99.90;;;;;;5031460;28;20527;-71
2023/07/28 00:48:03;;;;;;;22.58;17.48;;;18.00;99.90;;;;;;5024727;28;20029;-71
2023/07/28 00:50:29;;;;;;;19.98;15.82;;;18.00;99.90;;;;;;5025179;28;20025;-71
2023/07/28 00:52:55;;;;;;;20.98;16.13;;;18.00;99.90;;;;;;5029202;28;20028;-71
2023/07/28 00:55:22;;;;;;;18.75;15.90;;;18.00;99.90;;;;;;5030140;28;20036;-71
2023/07/28 00:57:47;;;;;;;21.08;16.65;;;18.00;99.90;;;;;;5029357;28;20036;-71
2023/07/28 01:00:13;;;;;;;21.25;16.52;;;17.90;99.90;;;;;;5024599;28;20358;-71
2023/07/28 01:02:39;;;;;;;22.98;15.77;;;17.90;99.90;;;;;;5029192;28;20374;-71
2023/07/28 01:05:05;;;;;;;20.92;16.70;;;18.00;99.90;;;;;;5030396;28;20025;-71
2023/07/28 01:07:53;;;;;;;22.48;15.90;;;18.00;99.90;;;;;;5028509;28;20033;-71
2023/07/28 01:10:28;;;;;;;19.92;15.57;;;17.90;99.90;;;;;;5030876;28;20117;-71
2023/07/28 01:12:53;;;;;;;18.25;15.18;;;18.00;99.90;;;;;;5029335;28;20072;-72
2023/07/28 01:15:19;;;;;;;21.70;16.05;;;17.90;99.90;;;;;;5028336;28;20025;-71
2023/07/28 01:17:44;;;;;;;21.17;15.40;;;17.90;99.90;;;;;;5029021;28;20120;-71
2023/07/28 01:20:10;;;;;;;22.33;15.85;;;17.90;99.90;;;;;;5028475;28;20369;-71
2023/07/28 01:23:16;;;;;;;21.63;16.10;;;17.90;99.90;;;;;;5031755;28;20155;-71
2023/07/28 01:25:49;;;;;;;22.48;15.80;;;17.90;99.90;;;;;;5029271;28;20461;-71
2023/07/28 01:28:17;;;;;;;20.40;15.27;;;17.90;99.90;;;;;;5027696;28;20125;-71
2023/07/28 01:30:43;;;;;;;22.23;16.23;;;18.00;99.90;;;;;;5029309;28;20048;-72
2023/07/28 01:33:08;;;;;;;21.60;15.55;;;17.90;99.90;;;;;;5025581;28;20334;-71
2023/07/28 01:35:37;;;;;;;26.00;15.57;;;17.90;99.90;;;;;;5029789;28;20477;-71
2023/07/28 01:38:02;;;;;;;23.45;16.33;;;17.90;99.90;;;;;;5027810;28;20025;-72
2023/07/28 01:40:28;;;;;;;21.70;15.85;;;17.90;99.90;;;;;;5028996;28;20045;-71
2023/07/28 01:42:53;;;;;;;24.85;16.30;;;18.00;99.90;;;;;;5027973;28;20033;-71
2023/07/28 01:45:19;;;;;;;23.25;16.33;;;18.00;99.90;;;;;;5029333;28;20029;-71
2023/07/28 01:47:44;;;;;;;25.98;16.17;;;18.00;99.90;;;;;;5030575;28;20030;-72
2023/07/28 01:50:10;;;;;;;28.95;18.23;;;18.00;99.90;;;;;;5024595;28;20044;-71
2023/07/28 01:52:35;;;;;;;26.13;16.42;;;18.00;99.90;;;;;;5030497;28;20083;-71
2023/07/28 01:55:01;;;;;;;27.83;17.90;;;18.00;99.90;;;;;;5029070;28;20102;-71
2023/07/28 01:57:27;;;;;;;26.17;17.50;;;18.00;99.90;;;;;;5029748;28;20049;-71
2023/07/28 01:59:54;;;;;;;28.08;16.98;;;18.00;99.90;;;;;;5033081;28;20028;-71
2023/07/28 02:02:19;;;;;;;24.27;16.63;;;17.90;99.90;;;;;;5021146;28;20030;-71
2023/07/28 02:04:46;;;;;;;26.23;17.13;;;18.00;99.90;;;;;;5029309;28;20079;-72
2023/07/28 02:07:11;;;;;;;25.38;16.35;;;17.90;99.90;;;;;;5029273;28;20033;-71
2023/07/28 02:09:37;;;;;;;24.75;16.48;;;18.00;99.90;;;;;;5021918;28;20026;-71
2023/07/28 02:12:02;;;;;;;29.15;17.08;;;17.90;99.90;;;;;;5025210;28;20061;-72
2023/07/28 02:14:28;;;;;;;25.35;15.32;;;17.90;99.90;;;;;;5027808;28;20029;-71
2023/07/28 02:16:53;;;;;;;25.98;16.05;;;18.00;99.90;;;;;;5030142;28;20370;-72
2023/07/28 02:19:19;;;;;;;25.50;15.57;;;18.00;99.90;;;;;;5025462;28;20056;-71
2023/07/28 02:21:44;;;;;;;27.65;16.50;;;17.90;99.90;;;;;;5029372;28;20056;-72
2023/07/28 02:24:10;;;;;;;28.55;16.45;;;18.00;99.90;;;;;;5029191;28;20057;-71
2023/07/28 02:26:35;;;;;;;27.85;16.67;;;18.00;99.90;;;;;;5028915;28;20104;-71
2023/07/28 02:29:01;;;;;;;24.70;16.45;;;18.00;99.90;;;;;;5029227;28;20036;-71
2023/07/28 02:31:26;;;;;;;28.83;16.48;;;18.00;99.90;;;;;;5029309;28;20408;-71
2023/07/28 02:33:52;;;;;;;25.27;15.65;;;18.00;99.90;;;;;;5028197;28;20413;-71
2023/07/28 02:36:17;;;;;;;24.80;15.00;;;18.00;99.90;;;;;;5028311;28;20107;-71
2023/07/28 02:38:43;;;;;;;26.20;16.50;;;18.00;99.90;;;;;;5029583;28;20028;-71
2023/07/28 02:41:08;;;;;;;28.00;16.45;;;18.00;99.90;;;;;;5027369;28;20029;-71
2023/07/28 02:43:34;;;;;;;29.40;16.55;;;18.00;99.90;;;;;;5029886;28;20025;-71
2023/07/28 02:46:00;;;;;;;25.40;15.20;;;18.00;99.90;;;;;;5022902;28;20014;-72
2023/07/28 02:48:26;;;;;;;37.15;16.17;;;18.00;99.90;;;;;;5026835;28;20033;-72
2023/07/28 02:50:52;;;;;;;23.05;15.05;;;18.10;99.90;;;;;;5027185;28;20044;-72
2023/07/28 02:53:18;;;;;;;29.02;15.65;;;18.00;99.90;;;;;;5029212;28;20034;-72
2023/07/28 02:55:44;;;;;;;27.17;15.65;;;18.10;99.90;;;;;;5027812;28;20036;-72
2023/07/28 02:58:10;;;;;;;29.45;16.45;;;18.00;99.90;;;;;;5030447;28;20361;-72
2023/07/28 03:00:39;;;;;;;29.67;16.02;;;18.10;99.90;;;;;;5027392;28;20029;-71
2023/07/28 03:03:06;;;;;;;28.92;15.30;;;18.10;99.90;;;;;;5026379;28;20116;-72
2023/07/28 03:05:32;;;;;;;30.05;15.93;;;18.00;99.90;;;;;;5026132;28;20441;-72
2023/07/28 03:07:58;;;;;;;30.05;16.60;;;18.10;99.90;;;;;;5026772;28;20033;-72
2023/07/28 03:10:24;;;;;;;30.60;15.68;;;18.10;99.90;;;;;;5022365;28;20033;-72
2023/07/28 03:12:49;;;;;;;28.95;16.15;;;18.10;99.90;;;;;;5028060;28;20411;-72
2023/07/28 03:15:15;;;;;;;28.80;15.30;;;18.10;99.90;;;;;;5030196;28;20029;-72
2023/07/28 03:17:40;;;;;;;25.73;14.90;;;18.10;99.90;;;;;;5027945;28;20064;-72
2023/07/28 03:20:06;;;;;;;30.95;15.32;;;18.10;99.90;;;;;;5027600;28;20068;-72
2023/07/28 03:22:32;;;;;;;30.40;16.15;;;18.10;99.90;;;;;;5027450;28;20033;-72
2023/07/28 03:24:58;;;;;;;30.45;15.98;;;18.10;99.90;;;;;;5029846;28;20021;-72
2023/07/28 03:27:24;;;;;;;35.40;16.92;;;18.10;99.90;;;;;;5027863;28;20440;-72
2023/07/28 03:29:50;;;;;;;32.55;15.18;;;18.10;99.90;;;;;;5021401;28;20022;-72
2023/07/28 03:32:16;;;;;;;27.55;15.18;;;18.10;99.90;;;;;;5021566;28;20036;-72
2023/07/28 03:34:41;;;;;;;38.22;16.27;;;18.00;99.90;;;;;;5029029;28;20037;-72
2023/07/28 03:37:07;;;;;;;32.70;16.17;;;18.10;99.90;;;;;;5023859;28;20041;-72
2023/07/28 03:39:32;;;;;;;32.25;16.58;;;18.10;99.90;;;;;;5029366;28;20025;-72
2023/07/28 03:41:58;;;;;;;32.90;15.13;;;18.10;99.90;;;;;;5025963;28;20076;-72
2023/07/28 03:44:24;;;;;;;33.85;16.30;;;18.10;99.90;;;;;;5028472;28;20072;-72
2023/07/28 03:46:49;;;;;;;37.90;17.05;;;18.10;99.90;;;;;;5025201;28;20370;-72
2023/07/28 03:49:15;;;;;;;35.67;16.70;;;18.10;99.90;;;;;;5025102;28;20029;-72
2023/07/28 03:51:40;;;;;;;37.15;17.35;;;18.10;99.90;;;;;;5029183;28;20033;-72
2023/07/28 03:54:06;;;;;;;36.75;17.40;;;18.10;99.90;;;;;;5029299;28;20573;-72
2023/07/28 03:56:31;;;;;;;37.45;17.85;;;18.10;99.90;;;;;;5030088;28;20045;-72
2023/07/28 03:58:57;;;;;;;38.75;18.08;;;18.10;99.90;;;;;;5024860;28;20038;-72
2023/07/28 04:01:24;;;;;;;45.33;20.52;;;18.10;99.90;;;;;;5030076;28;20155;-72
2023/07/28 04:03:49;;;;;;;41.25;19.02;;;18.10;99.90;;;;;;5024567;28;20022;-72
2023/07/28 04:06:15;;;;;;;41.33;19.45;;;18.10;99.90;;;;;;5032489;28;20041;-72
2023/07/28 04:08:41;;;;;;;41.53;19.95;;;18.10;99.90;;;;;;5022417;28;20219;-72
2023/07/28 04:11:07;;;;;;;42.05;20.23;;;18.10;99.90;;;;;;5026076;28;20044;-72
2023/07/28 04:13:33;;;;;;;50.22;21.92;;;18.10;99.90;;;;;;5024780;28;20022;-72
2023/07/28 04:15:59;;;;;;;50.13;20.63;;;18.10;99.90;;;;;;5028340;28;20551;-72
2023/07/28 04:18:25;;;;;;;50.22;21.25;;;18.10;99.90;;;;;;5027172;28;20061;-72
2023/07/28 04:20:50;;;;;;;45.40;20.85;;;18.10;99.90;;;;;;5028941;28;20491;-72
2023/07/28 04:23:16;;;;;;;54.17;22.17;;;18.10;99.90;;;;;;5029897;28;20030;-72
2023/07/28 04:25:42;;;;;;;51.15;21.77;;;18.10;99.90;;;;;;5030664;28;20021;-72
2023/07/28 04:28:07;;;;;;;51.33;22.17;;;18.10;99.90;;;;;;5031809;28;20505;-72
2023/07/28 04:30:33;;;;;;;51.50;22.98;;;18.10;99.90;;;;;;5031440;28;20045;-72
2023/07/28 04:32:58;;;;;;;58.45;25.40;;;18.10;99.90;;;;;;5029230;28;20057;-72
2023/07/28 04:35:24;;;;;;;55.85;24.80;;;18.10;99.90;;;;;;5030961;28;20026;-72
2023/07/28 04:37:49;;;;;;;49.72;23.48;;;18.10;99.90;;;;;;5030146;28;20038;-72
2023/07/28 04:40:15;;;;;;;55.88;25.50;;;18.10;99.90;;;;;;5029197;28;20076;-72
2023/07/28 04:42:40;;;;;;;58.20;25.40;;;18.10;99.90;;;;;;5026100;28;20033;-72
2023/07/28 04:45:07;;;;;;;54.53;24.88;;;18.20;99.90;;;;;;5027773;28;20462;-72
2023/07/28 04:47:32;;;;;;;55.17;24.17;;;18.20;99.90;;;;;;5030552;28;20068;-72
2023/07/28 04:49:58;;;;;;;56.05;24.45;;;18.10;99.90;;;;;;5020762;28;20072;-72
2023/07/28 04:52:24;;;;;;;58.15;25.02;;;18.20;99.90;;;;;;5025719;28;20029;-72
2023/07/28 04:54:49;;;;;;;54.45;22.77;;;18.20;99.90;;;;;;5027508;28;20491;-72
2023/07/28 04:57:15;;;;;;;58.83;23.20;;;18.20;99.90;;;;;;5025482;28;20044;-71
2023/07/28 04:59:40;;;;;;;60.72;24.85;;;18.20;99.90;;;;;;5031218;28;20025;-72
2023/07/28 05:02:06;;;;;;;60.40;25.13;;;18.20;99.90;;;;;;5022186;28;20108;-72
2023/07/28 05:04:32;;;;;;;55.25;23.73;;;18.20;99.90;;;;;;5031644;28;20018;-72
2023/07/28 05:06:57;;;;;;;55.20;24.65;;;18.20;99.90;;;;;;5027087;28;20041;-72
2023/07/28 05:09:23;;;;;;;62.60;27.15;;;18.20;99.90;;;;;;5021872;28;20389;-72
2023/07/28 05:11:48;;;;;;;55.67;24.20;;;18.20;99.90;;;;;;5023268;28;20026;-72
2023/07/28 05:14:14;;;;;;;61.70;25.23;;;18.20;99.90;;;;;;5023030;28;20025;-69
2023/07/28 05:16:39;;;;;;;58.72;26.27;;;18.20;99.90;;;;;;5029390;28;20072;-72
2023/07/28 05:19:08;;;;;;;53.38;23.35;;;18.20;99.90;;;;;;5026203;28;20392;-72
2023/07/28 05:21:33;;;;;;;56.88;23.80;;;18.20;99.90;;;;;;5023934;28;20087;-73
2023/07/28 05:23:59;;;;;;;53.50;24.83;;;18.20;99.90;;;;;;5031407;28;20469;-73
2023/07/28 05:26:24;;;;;;;50.92;24.38;;;18.20;99.90;;;;;;5029213;28;20532;-72
2023/07/28 05:28:50;;;;;;;54.83;24.25;;;18.30;99.90;;;;;;5031325;28;20063;-73
2023/07/28 05:31:16;;;;;;;55.80;24.95;;;18.30;99.90;;;;;;5022783;28;20108;-72
2023/07/28 05:33:42;;;;;;;52.80;23.52;;;18.30;99.90;;;;;;5029476;28;20025;-73
2023/07/28 05:36:07;;;;;;;54.88;24.08;;;18.30;99.90;;;;;;5029552;28;20034;-72
2023/07/28 05:38:33;;;;;;;51.78;23.92;;;18.30;99.90;;;;;;5031579;28;20032;-72
2023/07/28 05:41:00;;;;;;;58.83;24.25;;;18.30;99.90;;;;;;5028107;28;20401;-72
2023/07/28 05:43:27;;;;;;;51.10;22.70;;;18.30;99.90;;;;;;5030225;28;20029;-72
2023/07/28 05:45:52;;;;;;;58.03;23.08;;;18.30;99.90;;;;;;5028947;28;20036;-72
2023/07/28 05:48:18;;;;;;;53.65;22.58;;;18.30;99.90;;;;;;5031485;28;20021;-72
2023/07/28 05:50:44;;;;;;;50.90;22.25;;;18.30;99.90;;;;;;5030217;28;20108;-73
2023/07/28 05:53:09;;;;;;;55.85;22.95;;;18.30;99.90;;;;;;5022584;28;20537;-70
2023/07/28 05:55:35;;;;;;;52.08;24.00;;;18.40;99.90;;;;;;5027842;28;20029;-71
2023/07/28 05:58:00;;;;;;;49.10;21.75;;;18.40;99.90;;;;;;5025324;28;20382;-70
2023/07/28 06:00:26;;;;;;;53.80;22.63;;;18.40;99.90;;;;;;5028462;28;20049;-70
2023/07/28 06:02:52;;;;;;;54.50;24.92;;;18.40;99.90;;;;;;5020280;28;20033;-71
2023/07/28 06:05:18;;;;;;;54.38;24.63;;;18.40;99.90;;;;;;5022469;28;20462;-71
2023/07/28 06:07:43;;;;;;;51.90;23.90;;;18.40;99.90;;;;;;5023957;28;20037;-72
2023/07/28 06:10:09;;;;;;;56.90;25.10;;;18.50;99.90;;;;;;5023056;28;20025;-71
2023/07/28 06:12:36;;;;;;;55.08;24.10;;;18.50;99.90;;;;;;5024017;28;20034;-72
2023/07/28 06:15:02;;;;;;;56.60;24.73;;;18.50;99.90;;;;;;5019625;28;20712;-71
2023/07/28 06:17:28;;;;;;;56.05;25.08;;;18.60;99.90;;;;;;5026925;28;20112;-71
2023/07/28 06:19:54;;;;;;;56.88;23.98;;;18.60;99.90;;;;;;5030724;28;20806;-72
2023/07/28 06:22:20;;;;;;;62.67;26.98;;;18.60;99.90;;;;;;5027923;28;20025;-72
2023/07/28 06:24:45;;;;;;;57.00;26.73;;;18.60;99.90;;;;;;5029117;28;20064;-72
2023/07/28 06:27:11;;;;;;;54.85;25.23;;;18.70;99.90;;;;;;5030581;28;20049;-73
2023/07/28 06:29:36;;;;;;;56.45;25.75;;;18.70;99.90;;;;;;5026163;28;20064;-72
2023/07/28 06:32:02;;;;;;;53.00;25.65;;;18.70;99.90;;;;;;5027460;28;20037;-72
2023/07/28 06:34:28;;;;;;;52.05;26.08;;;18.70;99.90;;;;;;5027054;28;20029;-72
2023/07/28 06:36:53;;;;;;;51.03;24.05;;;18.70;99.90;;;;;;5029577;28;20084;-72
2023/07/28 06:39:19;;;;;;;49.72;23.77;;;18.70;99.90;;;;;;5026890;28;20075;-72
2023/07/28 06:41:45;;;;;;;49.90;24.25;;;18.70;99.90;;;;;;5028538;28;20025;-73
2023/07/28 06:44:10;;;;;;;55.85;24.25;;;18.70;99.90;;;;;;5030615;28;20029;-73
2023/07/28 06:46:36;;;;;;;43.67;21.92;;;18.80;99.90;;;;;;5026932;28;20049;-72
2023/07/28 06:49:01;;;;;;;49.38;22.63;;;18.80;99.90;;;;;;5030305;28;20127;-73
2023/07/28 06:51:27;;;;;;;45.25;21.50;;;18.80;99.90;;;;;;5028821;28;20079;-73
2023/07/28 06:53:52;;;;;;;41.03;20.90;;;18.80;99.90;;;;;;5021165;28;20022;-72
2023/07/28 06:56:18;;;;;;;41.47;21.83;;;18.90;99.90;;;;;;5026013;28;20029;-72
2023/07/28 06:58:44;;;;;;;40.20;20.90;;;18.80;99.90;;;;;;5029966;28;20048;-73
2023/07/28 07:01:10;;;;;;;45.58;20.50;;;18.80;99.90;;;;;;5018098;28;20061;-73
2023/07/28 07:03:36;;;;;;;41.33;20.30;;;18.80;99.90;;;;;;5022178;28;20553;-73
2023/07/28 07:06:02;;;;;;;44.58;21.27;;;18.80;99.90;;;;;;5024796;28;20075;-73
2023/07/28 07:08:28;;;;;;;43.80;21.52;;;18.80;99.90;;;;;;5015596;28;20116;-73
2023/07/28 07:10:53;;;;;;;43.30;20.33;;;18.80;99.90;;;;;;5028843;28;20943;-72
2023/07/28 07:13:19;;;;;;;40.97;20.20;;;18.90;99.90;;;;;;5015507;28;20033;-72
2023/07/28 07:15:45;;;;;;;40.53;21.42;;;18.90;99.90;;;;;;5022771;28;20026;-73
2023/07/28 07:18:11;;;;;;;42.88;21.27;;;18.90;99.90;;;;;;5023517;28;20077;-73
2023/07/28 07:20:38;;;;;;;41.50;21.98;;;19.00;99.90;;;;;;5022572;28;20030;-73
2023/07/28 07:23:04;;;;;;;40.38;20.67;;;18.90;99.90;;;;;;5023352;28;20234;-72
2023/07/28 07:25:30;;;;;;;39.80;20.90;;;19.00;99.90;;;;;;5028330;28;20495;-72
2023/07/28 07:27:56;;;;;;;39.00;20.50;;;19.00;99.90;;;;;;5032325;28;20132;-73
2023/07/28 07:30:22;;;;;;;38.05;19.95;;;19.00;99.90;;;;;;5025338;28;20808;-72
2023/07/28 07:32:47;;;;;;;42.42;20.50;;;19.00;99.90;;;;;;5023511;28;20044;-72
2023/07/28 07:35:13;;;;;;;44.90;21.85;;;19.00;99.90;;;;;;5023884;28;20469;-72
2023/07/28 07:37:40;;;;;;;42.75;21.33;;;19.10;99.90;;;;;;5024147;28;20404;-73
2023/07/28 07:40:07;;;;;;;43.38;20.48;;;19.10;99.90;;;;;;5022181;28;20120;-72
2023/07/28 07:43:03;;;;;;;35.70;20.60;;;19.20;99.90;;;;;;5032362;28;20473;-72
2023/07/28 07:45:30;;;;;;;42.10;20.38;;;19.30;99.90;;;;;;5019226;28;20064;-72
2023/07/28 07:47:55;;;;;;;35.83;18.80;;;19.30;99.90;;;;;;5032649;28;20021;-72
2023/07/28 07:50:21;;;;;;;35.00;18.58;;;19.40;99.90;;;;;;5031896;28;20380;-73
2023/07/28 07:52:47;;;;;;;34.45;19.60;;;19.50;99.90;;;;;;5032412;28;20512;-73
2023/07/28 07:55:13;;;;;;;34.60;17.73;;;19.60;99.90;;;;;;5033362;28;20096;-73
2023/07/28 07:57:42;;;;;;;33.90;18.08;;;19.60;99.90;;;;;;5033411;28;20033;-72
2023/07/28 08:00:08;;;;;;;28.58;17.15;;;19.70;99.90;;;;;;5033398;28;20029;-72
2023/07/28 08:02:34;;;;;;;30.70;17.15;;;19.80;99.90;;;;;;5031783;28;20037;-73
2023/07/28 08:05:00;;;;;;;26.48;16.00;;;19.80;99.90;;;;;;5030206;28;20095;-72
2023/07/28 08:07:26;;;;;;;28.40;17.25;;;19.80;99.90;;;;;;5025782;28;20170;-72
2023/07/28 08:09:52;;;;;;;27.58;16.48;;;19.90;99.90;;;;;;5033227;28;20029;-73
2023/07/28 08:12:17;;;;;;;27.10;16.48;;;19.90;99.90;;;;;;5033204;28;20033;-72
2023/07/28 08:14:43;;;;;;;29.52;17.23;;;20.00;99.90;;;;;;5030811;28;20022;-73
2023/07/28 08:17:10;;;;;;;30.73;17.83;;;20.10;99.90;;;;;;5032844;28;20076;-72
2023/07/28 08:19:35;;;;;;;25.60;16.85;;;20.00;99.90;;;;;;5032128;28;20033;-72
2023/07/28 08:22:05;;;;;;;27.65;17.15;;;20.00;99.90;;;;;;5030835;28;20867;-73
2023/07/28 08:24:31;;;;;;;29.38;17.88;;;20.00;99.90;;;;;;5028784;28;20165;-73
2023/07/28 08:26:57;;;;;;;30.70;17.60;;;19.90;99.90;;;;;;5024495;28;20050;-73
2023/07/28 08:29:22;;;;;;;31.40;18.25;;;19.80;99.90;;;;;;5026121;28;20380;-72
2023/07/28 08:31:51;;;;;;;31.23;18.27;;;19.80;99.90;;;;;;5022357;28;20037;-73
2023/07/28 08:34:19;;;;;;;30.30;16.90;;;19.90;99.90;;;;;;5026508;28;20018;-73
2023/07/28 08:36:44;;;;;;;28.70;18.00;;;19.90;99.90;;;;;;5020454;28;20448;-73
2023/07/28 08:39:10;;;;;;;29.60;18.25;;;20.00;99.90;;;;;;5022951;28;20021;-73
2023/07/28 08:41:35;;;;;;;28.02;18.50;;;20.10;99.90;;;;;;5022528;28;20037;-73
2023/07/28 08:44:02;;;;;;;31.90;18.42;;;20.10;99.90;;;;;;5030733;28;20034;-73
2023/07/28 08:46:28;;;;;;;30.13;17.83;;;20.10;99.90;;;;;;5029877;28;20112;-73
2023/07/28 08:48:54;;;;;;;32.60;19.88;;;20.10;99.90;;;;;;5019943;28;20564;-73
2023/07/28 08:51:23;;;;;;;30.45;18.52;;;20.20;99.90;;;;;;5029487;28;20033;-73
2023/07/28 08:53:49;;;;;;;32.58;20.70;;;20.20;99.90;;;;;;5018587;28;20029;-73
2023/07/28 08:56:15;;;;;;;28.95;18.98;;;20.20;99.90;;;;;;5020056;28;20373;-72
2023/07/28 08:58:40;;;;;;;30.85;19.90;;;20.30;99.90;;;;;;5026861;28;20116;-72
2023/07/28 09:01:06;;;;;;;31.15;19.35;;;20.30;99.90;;;;;;5028233;28;20033;-72
2023/07/28 09:03:33;;;;;;;30.73;19.92;;;20.30;99.90;;;;;;5030705;28;20033;-73
2023/07/28 09:06:02;;;;;;;31.67;20.63;;;20.40;99.90;;;;;;5026592;28;20116;-73
2023/07/28 09:08:30;;;;;;;28.27;18.42;;;20.40;99.90;;;;;;5022127;28;20117;-73
2023/07/28 09:10:56;;;;;;;28.88;18.52;;;20.40;99.90;;;;;;5022648;28;20059;-72
2023/07/28 09:13:22;;;;;;;30.13;18.67;;;20.50;99.90;;;;;;5025538;28;20036;-73
2023/07/28 09:15:47;;;;;;;26.48;17.60;;;20.50;99.90;;;;;;5030438;28;20105;-73
2023/07/28 09:18:15;;;;;;;28.42;18.20;;;20.60;99.90;;;;;;5029016;28;20137;-73
2023/07/28 09:20:42;;;;;;;24.75;17.50;;;20.70;99.90;;;;;;5030493;28;20041;-73
2023/07/28 09:23:08;;;;;;;27.52;18.63;;;20.70;99.90;;;;;;5031355;28;20120;-72
2023/07/28 09:25:36;;;;;;;29.50;19.73;;;20.80;99.90;;;;;;5031334;28;20032;-73
2023/07/28 09:28:02;;;;;;;27.27;18.33;;;20.90;99.90;;;;;;5027302;28;20505;-73
2023/07/28 09:30:47;;;;;;;28.73;18.90;;;20.90;99.90;;;;;;5027145;28;20084;-72
2023/07/28 09:33:12;;;;;;;29.52;19.55;;;20.90;99.90;;;;;;5028390;28;20030;-72
2023/07/28 09:35:49;;;;;;;31.30;21.42;;;20.80;99.90;;;;;;5031257;28;20021;-72
2023/07/28 09:38:16;;;;;;;30.38;19.98;;;20.80;99.90;;;;;;5027053;28;20144;-72
2023/07/28 09:40:46;;;;;;;32.05;19.45;;;20.80;99.90;;;;;;5023517;28;20084;-73
2023/07/28 09:43:13;;;;;;;27.38;18.30;;;20.80;99.90;;;;;;5027966;28;20037;-73
2023/07/28 09:45:42;;;;;;;27.40;18.65;;;20.90;99.90;;;;;;5031828;28;20040;-72
2023/07/28 09:48:15;;;;;;;29.67;19.60;;;21.10;99.90;;;;;;5020877;28;20029;-73
2023/07/28 09:50:42;;;;;;;31.20;20.02;;;21.30;99.90;;;;;;5026825;28;20128;-71
2023/07/28 09:53:10;;;;;;;27.58;19.30;;;21.50;99.90;;;;;;5022674;28;20040;-72
2023/07/28 09:55:42;;;;;;;26.38;18.02;;;21.50;99.90;;;;;;5021450;28;20029;-72
2023/07/28 09:58:11;;;;;;;24.67;17.80;;;21.60;99.90;;;;;;5028044;28;20409;-73
2023/07/28 10:00:38;;;;;;;25.75;17.23;;;21.70;99.90;;;;;;5026210;28;20725;-72
2023/07/28 10:03:04;;;;;;;26.50;18.58;;;21.90;99.90;;;;;;5029836;28;20071;-73
2023/07/28 10:05:30;;;;;;;25.00;18.13;;;22.10;99.90;;;;;;5028502;28;20493;-72
2023/07/28 10:07:56;;;;;;;27.38;18.25;;;22.30;99.90;;;;;;5027795;28;20026;-71
2023/07/28 10:10:22;;;;;;;22.17;16.52;;;22.40;99.90;;;;;;5027791;28;20025;-73
2023/07/28 10:12:52;;;;;;;23.73;16.88;;;22.50;99.90;;;;;;5028629;28;20040;-73
2023/07/28 10:15:20;;;;;;;22.42;17.73;;;22.70;99.90;;;;;;5030351;28;20037;-72
2023/07/28 10:17:54;;;;;;;20.30;16.42;;;22.90;99.90;;;;;;5028410;28;20120;-73
2023/07/28 10:20:41;;;;;;;22.33;16.33;;;23.00;99.90;;;;;;5027469;28;20030;-72
2023/07/28 10:23:08;;;;;;;23.25;17.02;;;23.10;99.90;;;;;;5027815;28;20056;-72
2023/07/28 10:25:35;;;;;;;23.35;15.90;;;23.10;99.90;;;;;;5027224;28;20030;-72
2023/07/28 10:28:02;;;;;;;22.35;16.30;;;23.10;99.90;;;;;;5026728;28;20041;-72
2023/07/28 10:30:28;;;;;;;20.98;16.45;;;23.20;99.90;;;;;;5023139;28;20030;-72
2023/07/28 10:32:55;;;;;;;23.08;15.95;;;23.20;99.90;;;;;;5025831;28;20032;-73
2023/07/28 10:35:25;;;;;;;18.95;14.18;;;23.20;99.90;;;;;;5025661;28;20071;-73
2023/07/28 10:37:59;;;;;;;15.13;12.48;;;23.20;99.90;;;;;;5025937;28;20420;-73
2023/07/28 10:40:29;;;;;;;17.77;12.75;;;23.10;99.90;;;;;;5028875;28;20376;-73
2023/07/28 10:42:55;;;;;;;15.73;12.32;;;23.10;99.90;;;;;;5023318;28;20026;-72
2023/07/28 10:45:26;;;;;;;15.40;12.55;;;23.10;99.90;;;;;;5021225;28;20052;-73
2023/07/28 10:47:55;;;;;;;18.93;13.03;;;23.20;99.90;;;;;;5022844;28;20049;-73
2023/07/28 10:50:24;;;;;;;16.98;12.65;;;23.20;99.90;;;;;;5023874;28;20426;-73
2023/07/28 10:52:50;;;;;;;14.48;10.88;;;23.30;99.90;;;;;;5022379;28;20022;-73
2023/07/28 10:55:17;;;;;;;12.75;10.57;;;23.50;99.90;;;;;;5019499;28;20025;-73
2023/07/28 10:57:44;;;;;;;13.60;10.25;;;23.60;99.90;;;;;;5022368;28;20440;-74
2023/07/28 11:00:17;;;;;;;13.68;10.68;;;23.80;99.90;;;;;;5025214;28;20029;-71
2023/07/28 11:02:43;;;;;;;13.63;11.27;;;24.00;99.90;;;;;;5026594;28;20022;-72
2023/07/28 11:05:19;;;;;;;12.63;11.10;;;24.10;99.90;;;;;;5030876;28;20505;-72
2023/07/28 11:07:45;;;;;;;11.68;10.00;;;24.30;99.90;;;;;;5029468;28;20025;-72
2023/07/28 11:10:15;;;;;;;11.57;9.93;;;24.50;99.90;;;;;;5029978;28;20069;-73
2023/07/28 11:12:46;;;;;;;13.48;10.93;;;24.70;99.90;;;;;;5028106;28;20025;-72
2023/07/28 11:15:13;;;;;;;10.93;9.82;;;24.90;99.90;;;;;;5031481;28;20084;-71
2023/07/28 11:17:40;;;;;;;11.80;10.13;;;24.90;99.90;;;;;;5020320;28;20155;-73
2023/07/28 11:20:30;;;;;;;11.35;9.80;;;25.00;99.90;;;;;;5025392;28;20025;-71
2023/07/28 11:23:00;;;;;;;11.02;9.93;;;25.00;99.90;;;;;;5028612;28;20025;-72
2023/07/28 11:25:29;;;;;;;10.13;8.30;;;25.10;99.90;;;;;;5030922;28;20025;-73
2023/07/28 11:27:55;;;;;;;9.85;8.45;;;25.10;99.90;;;;;;5029424;28;20049;-72
2023/07/28 11:30:22;;;;;;;9.18;8.23;;;25.30;99.90;;;;;;5033112;28;20462;-73
2023/07/28 11:32:50;;;;;;;9.85;8.60;;;25.40;99.90;;;;;;5032630;28;20504;-72
2023/07/28 11:35:18;;;;;;;8.88;7.47;;;25.50;99.90;;;;;;5032822;28;20026;-73
2023/07/28 11:37:48;;;;;;;9.52;7.10;;;25.60;99.90;;;;;;5026122;28;20072;-73
2023/07/28 11:40:16;;;;;;;7.53;6.50;;;25.60;99.90;;;;;;5032366;28;20112;-72
2023/07/28 11:42:45;;;;;;;6.63;6.00;;;25.60;99.90;;;;;;5040278;28;20490;-73
2023/07/28 11:45:14;;;;;;;6.68;5.47;;;25.60;99.90;;;;;;5027697;28;20395;-73
2023/07/28 11:47:39;;;;;;;7.40;6.20;;;25.70;99.90;;;;;;5020173;28;20033;-73
2023/07/28 11:50:07;;;;;;;7.35;6.32;;;25.80;99.90;;;;;;5026364;28;20040;-72
2023/07/28 11:52:37;;;;;;;7.47;6.25;;;25.90;99.90;;;;;;5032813;28;20507;-73
2023/07/28 11:55:05;;;;;;;6.10;5.50;;;26.00;99.90;;;;;;5033292;28;20029;-73
2023/07/28 11:57:31;;;;;;;6.38;5.20;;;25.90;99.90;;;;;;5032812;28;20110;-71
2023/07/28 11:59:57;;;;;;;7.10;5.80;;;25.90;99.90;;;;;;5031572;28;20509;-71
2023/07/28 12:02:31;;;;;;;7.20;6.18;;;25.70;99.90;;;;;;5025276;28;20389;-73
2023/07/28 12:04:58;;;;;;;8.27;7.00;;;25.70;99.90;;;;;;5031721;28;20021;-72
2023/07/28 12:07:33;;;;;;;7.53;6.45;;;25.70;99.90;;;;;;5027522;28;20022;-72
2023/07/28 12:10:11;;;;;;;7.18;5.75;;;25.70;99.90;;;;;;5028878;28;20029;-72
2023/07/28 12:12:47;;;;;;;8.05;5.93;;;25.70;99.90;;;;;;5033371;28;20044;-72
2023/07/28 12:15:31;;;;;;;7.47;6.60;;;25.60;99.90;;;;;;5032375;28;20076;-73
2023/07/28 12:18:16;;;;;;;8.07;7.20;;;25.60;99.90;;;;;;5027126;28;20481;-73
2023/07/28 12:20:50;;;;;;;9.05;7.93;;;25.70;99.90;;;;;;5024815;28;20416;-73
2023/07/28 12:23:17;;;;;;;9.52;8.55;;;25.70;99.90;;;;;;5033496;28;20033;-73
2023/07/28 12:25:44;;;;;;;10.05;8.50;;;25.60;99.90;;;;;;5033038;28;20018;-74
2023/07/28 12:28:10;;;;;;;10.27;9.18;;;25.60;99.90;;;;;;5028360;28;20057;-73